createdAt,value
2019-01-28T00:01:14.446Z,16.97
2019-01-28T00:03:44.891Z,16.53
2019-01-28T00:06:15.351Z,17.37
2019-01-28T00:08:45.695Z,17.23
2019-01-28T00:11:16.083Z,17.70
2019-01-28T00:13:46.831Z,15.77
2019-01-28T00:16:17.239Z,16.30
2019-01-28T00:18:47.589Z,15.90
2019-01-28T00:21:18.045Z,16.57
2019-01-28T00:23:48.476Z,16.03
2019-01-28T00:26:18.863Z,17.13
2019-01-28T00:28:49.303Z,18.10
2019-01-28T00:31:19.791Z,17.40
2019-01-28T00:33:50.147Z,18.07
2019-01-28T00:36:20.527Z,16.77
2019-01-28T00:38:50.879Z,17.03
2019-01-28T00:41:21.231Z,17.03
2019-01-28T00:43:51.584Z,16.37
2019-01-28T00:46:21.919Z,16.63
2019-01-28T00:49:03.835Z,17.97
2019-01-28T00:51:34.256Z,17.27
2019-01-28T00:54:04.642Z,16.67
2019-01-28T00:56:36.104Z,18.43
2019-01-28T00:59:06.571Z,17.63
2019-01-28T01:01:36.915Z,17.10
2019-01-28T01:04:07.287Z,16.47
2019-01-28T01:06:37.739Z,16.37
2019-01-28T01:09:10.019Z,17.20
2019-01-28T01:11:40.355Z,16.20
2019-01-28T01:14:10.703Z,16.10
2019-01-28T01:16:41.051Z,17.37
2019-01-28T01:19:11.404Z,16.63
2019-01-28T01:21:41.803Z,16.67
2019-01-28T01:24:12.164Z,16.50
2019-01-28T01:26:42.565Z,16.80
2019-01-28T01:29:12.960Z,15.37
2019-01-28T01:31:43.311Z,14.57
2019-01-28T01:34:13.690Z,16.57
2019-01-28T01:36:44.099Z,15.23
2019-01-28T01:39:14.447Z,15.33
2019-01-28T01:41:44.819Z,16.77
2019-01-28T01:44:15.151Z,15.80
2019-01-28T01:46:45.520Z,17.10
2019-01-28T01:49:15.888Z,15.43
2019-01-28T01:51:45.639Z,16.10
2019-01-28T01:54:15.974Z,16.67
2019-01-28T01:56:46.381Z,17.40
2019-01-28T01:59:16.731Z,15.73
2019-01-28T02:01:47.071Z,17.27
2019-01-28T02:04:17.423Z,16.13
2019-01-28T02:06:47.763Z,17.00
2019-01-28T02:09:18.161Z,15.30
2019-01-28T02:11:48.503Z,16.53
2019-01-28T02:14:18.911Z,15.63
2019-01-28T02:16:49.336Z,15.20
2019-01-28T02:19:19.707Z,16.67
2019-01-28T02:21:50.063Z,15.67
2019-01-28T02:24:20.415Z,16.93
2019-01-28T02:26:50.808Z,17.20
2019-01-28T02:29:21.243Z,16.40
2019-01-28T02:31:51.637Z,17.10
2019-01-28T02:34:22.052Z,17.57
2019-01-28T02:36:52.519Z,16.90
2019-01-28T02:39:22.855Z,17.13
2019-01-28T02:41:53.272Z,16.77
2019-01-28T02:44:23.691Z,16.63
2019-01-28T02:46:54.104Z,16.77
2019-01-28T02:49:24.454Z,15.93
2019-01-28T02:51:54.871Z,16.50
2019-01-28T02:54:25.291Z,15.93
2019-01-28T02:56:55.641Z,16.63
2019-01-28T02:59:26.012Z,16.63
2019-01-28T03:01:56.412Z,16.40
2019-01-28T03:04:26.215Z,16.57
2019-01-28T03:06:56.479Z,16.63
2019-01-28T03:09:26.832Z,17.10
2019-01-28T03:11:57.279Z,16.77
2019-01-28T03:14:28.052Z,16.20
2019-01-28T03:17:08.554Z,16.30
2019-01-28T03:19:39.164Z,17.37
2019-01-28T03:22:09.498Z,16.20
2019-01-28T03:24:39.847Z,15.67
2019-01-28T03:27:10.183Z,16.50
2019-01-28T03:29:40.554Z,16.77
2019-01-28T03:32:10.963Z,16.47
2019-01-28T03:34:41.411Z,16.50
2019-01-28T03:37:11.740Z,18.27
2019-01-28T03:39:42.115Z,17.37
2019-01-28T03:42:12.463Z,17.73
2019-01-28T03:44:42.831Z,16.73
2019-01-28T03:47:13.179Z,17.93
2019-01-28T03:49:43.548Z,17.07
2019-01-28T03:52:16.383Z,16.90
2019-01-28T03:54:46.776Z,17.17
2019-01-28T03:57:17.202Z,17.57
2019-01-28T03:59:47.620Z,17.03
2019-01-28T04:02:18.043Z,16.93
2019-01-28T04:04:48.382Z,16.50
2019-01-28T04:07:18.747Z,17.33
2019-01-28T04:09:49.079Z,17.23
2019-01-28T04:12:19.446Z,16.80
2019-01-28T04:14:49.887Z,16.87
2019-01-28T04:17:20.238Z,17.17
2019-01-28T04:19:50.644Z,18.57
2019-01-28T04:22:20.979Z,17.90
2019-01-28T04:24:51.318Z,17.83
2019-01-28T04:27:21.664Z,17.37
2019-01-28T04:29:52.048Z,17.20
2019-01-28T04:32:22.475Z,17.47
2019-01-28T04:34:52.903Z,17.00
2019-01-28T04:37:23.253Z,16.43
2019-01-28T04:39:53.632Z,17.90
2019-01-28T04:42:23.980Z,18.30
2019-01-28T04:44:54.367Z,17.47
2019-01-28T04:47:24.720Z,17.83
2019-01-28T04:49:55.083Z,17.53
2019-01-28T04:52:25.432Z,17.83
2019-01-28T04:54:55.791Z,17.97
2019-01-28T04:57:38.852Z,17.70
2019-01-28T05:00:13.167Z,17.27
2019-01-28T05:02:43.538Z,17.20
2019-01-28T05:05:14.613Z,19.13
2019-01-28T05:07:45.048Z,16.63
2019-01-28T05:10:16.326Z,17.47
2019-01-28T05:12:47.087Z,18.50
2019-01-28T05:15:17.771Z,19.07
2019-01-28T05:17:48.210Z,18.50
2019-01-28T05:20:20.099Z,17.20
2019-01-28T05:22:50.612Z,17.67
2019-01-28T05:25:20.959Z,17.93
2019-01-28T05:27:51.375Z,19.53
2019-01-28T05:30:24.069Z,17.23
2019-01-28T05:32:54.499Z,18.50
2019-01-28T05:35:24.875Z,20.47
2019-01-28T05:37:55.207Z,20.03
2019-01-28T05:40:25.723Z,18.87
2019-01-28T05:42:56.136Z,18.67
2019-01-28T05:45:26.855Z,19.03
2019-01-28T05:47:57.219Z,19.93
2019-01-28T05:50:29.282Z,18.57
2019-01-28T05:52:59.955Z,19.87
2019-01-28T05:55:30.305Z,19.00
2019-01-28T05:58:01.047Z,18.20
2019-01-28T06:00:36.043Z,19.60
2019-01-28T06:03:06.522Z,19.37
2019-01-28T06:05:38.015Z,18.50
2019-01-28T06:08:11.276Z,18.73
2019-01-28T06:10:42.412Z,19.17
2019-01-28T06:13:13.148Z,20.07
2019-01-28T06:15:43.690Z,19.60
2019-01-28T06:18:14.372Z,18.03
2019-01-28T06:20:47.486Z,19.93
2019-01-28T06:23:19.536Z,19.80
2019-01-28T06:25:50.191Z,19.10
2019-01-28T06:28:20.730Z,18.63
2019-01-28T06:30:51.479Z,18.60
2019-01-28T06:33:22.339Z,19.77
2019-01-28T06:35:52.839Z,18.93
2019-01-28T06:38:23.419Z,18.60
2019-01-28T06:40:53.787Z,19.53
2019-01-28T06:43:24.127Z,20.70
2019-01-28T06:45:54.099Z,19.80
2019-01-28T06:48:24.415Z,19.10
2019-01-28T06:50:54.794Z,20.43
2019-01-28T06:53:25.213Z,18.90
2019-01-28T06:55:55.587Z,19.30
2019-01-28T06:58:25.923Z,19.90
2019-01-28T07:00:55.660Z,21.00
2019-01-28T07:03:25.971Z,19.57
2019-01-28T07:05:56.362Z,19.37
2019-01-28T07:08:27.244Z,20.07
2019-01-28T07:10:58.250Z,20.07
2019-01-28T07:13:28.710Z,21.10
2019-01-28T07:16:00.055Z,21.63
2019-01-28T07:18:30.523Z,20.97
2019-01-28T07:21:04.204Z,23.20
2019-01-28T07:23:37.339Z,21.73
2019-01-28T07:26:07.679Z,19.50
2019-01-28T07:28:38.102Z,20.23
2019-01-28T07:31:08.439Z,20.07
2019-01-28T07:33:38.786Z,19.43
2019-01-28T07:36:09.136Z,19.67
2019-01-28T07:38:40.871Z,18.83
2019-01-28T07:41:11.243Z,19.70
2019-01-28T07:43:41.934Z,19.00
2019-01-28T07:46:12.347Z,19.83
2019-01-28T07:48:42.678Z,19.83
2019-01-28T07:51:13.059Z,21.03
2019-01-28T07:53:43.396Z,20.97
2019-01-28T07:56:13.772Z,21.83
2019-01-28T07:58:45.580Z,22.67
2019-01-28T08:01:15.987Z,22.47
2019-01-28T08:03:46.331Z,21.60
2019-01-28T08:06:16.023Z,22.90
2019-01-28T08:08:46.279Z,21.33
2019-01-28T08:11:16.611Z,22.60
2019-01-28T08:13:46.987Z,20.63
2019-01-28T08:16:17.739Z,20.77
2019-01-28T08:18:48.015Z,21.97
2019-01-28T08:21:18.360Z,24.20
2019-01-28T08:23:48.804Z,21.83
2019-01-28T08:26:18.489Z,23.33
2019-01-28T08:28:48.764Z,22.50
2019-01-28T08:31:19.115Z,20.53
2019-01-28T08:33:49.471Z,21.50
2019-01-28T08:36:19.840Z,20.93
2019-01-28T08:38:50.176Z,21.37
2019-01-28T08:41:20.515Z,20.97
2019-01-28T08:43:51.028Z,21.57
2019-01-28T08:46:22.221Z,21.60
2019-01-28T08:48:52.568Z,22.47
2019-01-28T08:51:22.911Z,21.33
2019-01-28T08:53:53.243Z,23.73
2019-01-28T08:56:23.696Z,24.20
2019-01-28T08:58:54.107Z,22.60
2019-01-28T09:01:24.451Z,23.73
2019-01-28T09:03:54.780Z,24.43
2019-01-28T09:06:25.223Z,23.17
2019-01-28T09:08:55.563Z,24.10
2019-01-28T09:11:25.919Z,23.37
2019-01-28T09:13:56.255Z,24.93
2019-01-28T09:16:40.988Z,25.77
2019-01-28T09:19:11.423Z,25.83
2019-01-28T09:21:41.954Z,25.80
2019-01-28T09:26:55.967Z,24.87
2019-01-28T09:29:27.000Z,24.13
2019-01-28T09:31:57.399Z,29.43
2019-01-28T09:34:30.371Z,25.47
2019-01-28T09:37:00.711Z,24.50
2019-01-28T09:39:31.356Z,24.10
2019-01-28T09:42:01.914Z,24.20
2019-01-28T09:44:32.303Z,23.00
2019-01-28T09:47:02.647Z,24.43
2019-01-28T09:49:33.177Z,25.83
2019-01-28T09:52:02.898Z,25.10
2019-01-28T09:54:33.299Z,25.17
2019-01-28T09:57:03.760Z,25.63
2019-01-28T09:59:34.103Z,25.97
2019-01-28T10:02:04.591Z,64.27
2019-01-28T10:04:34.935Z,38.67
2019-01-28T10:07:06.450Z,22.50
2019-01-28T10:09:38.468Z,19.03
2019-01-28T10:12:09.015Z,19.60
2019-01-28T10:14:39.379Z,20.73
2019-01-28T10:17:09.075Z,21.13
2019-01-28T10:19:39.366Z,20.90
2019-01-28T10:22:09.135Z,19.93
2019-01-28T10:24:39.423Z,18.47
2019-01-28T10:27:09.767Z,19.87
2019-01-28T10:29:41.331Z,19.23
2019-01-28T10:32:11.619Z,19.37
2019-01-28T10:34:41.347Z,18.40
2019-01-28T10:37:11.631Z,19.60
2019-01-28T10:39:42.003Z,22.17
2019-01-28T10:42:12.348Z,21.13
2019-01-28T10:44:42.692Z,20.70
2019-01-28T10:47:13.044Z,19.43
2019-01-28T10:49:43.379Z,19.47
2019-01-28T10:52:14.118Z,18.93
2019-01-28T10:54:44.486Z,19.07
2019-01-28T10:57:15.323Z,17.57
2019-01-28T10:59:48.310Z,16.73
2019-01-28T11:02:18.904Z,18.40
2019-01-28T11:04:49.239Z,17.30
2019-01-28T11:07:19.595Z,16.53
2019-01-28T11:09:49.974Z,15.57
2019-01-28T11:12:20.455Z,16.07
2019-01-28T11:14:50.883Z,15.00
2019-01-28T11:17:21.269Z,14.83
2019-01-28T11:19:51.751Z,14.37
2019-01-28T11:22:22.064Z,14.23
2019-01-28T11:24:52.458Z,14.00
2019-01-28T11:27:22.791Z,14.53
2019-01-28T11:29:53.371Z,15.17
2019-01-28T11:32:23.839Z,13.93
2019-01-28T11:34:54.273Z,15.37
2019-01-28T11:37:24.913Z,14.70
2019-01-28T11:39:55.310Z,13.90
2019-01-28T11:42:25.837Z,15.47
2019-01-28T11:44:56.267Z,15.53
2019-01-28T11:47:26.767Z,14.37
2019-01-28T11:49:57.254Z,13.77
2019-01-28T11:52:27.643Z,15.03
2019-01-28T11:54:57.975Z,14.57
2019-01-28T11:57:29.387Z,14.23
2019-01-28T12:00:00.804Z,14.00
2019-01-28T12:02:34.316Z,12.47
2019-01-28T12:05:03.275Z,12.83
2019-01-28T12:07:33.680Z,11.67
2019-01-28T12:10:04.840Z,13.07
2019-01-28T12:12:35.251Z,13.00
2019-01-28T12:15:07.011Z,12.87
2019-01-28T12:17:37.728Z,18.30
2019-01-28T12:20:08.683Z,13.67
2019-01-28T12:22:39.059Z,12.80
2019-01-28T12:25:10.812Z,12.60
2019-01-28T12:27:41.283Z,12.10
2019-01-28T12:30:16.123Z,11.40
2019-01-28T12:32:46.507Z,13.30
2019-01-28T12:35:17.506Z,10.47
2019-01-28T12:37:48.071Z,14.80
2019-01-28T12:40:18.927Z,10.17
2019-01-28T12:42:52.706Z,7.27
2019-01-28T12:45:23.364Z,6.70
2019-01-28T12:47:53.722Z,6.73
2019-01-28T12:50:24.416Z,7.53
2019-01-28T12:52:54.796Z,8.23
2019-01-28T12:55:25.346Z,8.93
2019-01-28T12:57:55.839Z,8.00
2019-01-28T13:00:32.152Z,7.50
2019-01-28T13:03:02.475Z,6.63
2019-01-28T13:05:32.815Z,6.50
2019-01-28T13:08:03.139Z,6.80
2019-01-28T13:10:33.511Z,7.23
2019-01-28T13:13:03.843Z,6.80
2019-01-28T13:15:34.320Z,8.67
2019-01-28T13:18:04.682Z,8.93
2019-01-28T13:20:57.260Z,11.67
2019-01-28T13:23:29.227Z,15.53
2019-01-28T13:25:59.568Z,14.40
2019-01-28T13:28:29.987Z,13.03
2019-01-28T13:31:00.383Z,16.20
2019-01-28T13:33:30.723Z,21.57
2019-01-28T13:36:01.089Z,22.43
2019-01-28T13:38:31.951Z,25.20
2019-01-28T13:41:02.471Z,18.10
2019-01-28T13:43:32.818Z,12.07
2019-01-28T13:46:03.148Z,27.03
2019-01-28T13:48:33.499Z,73.03
2019-01-28T13:51:03.211Z,23.30
2019-01-28T13:53:33.467Z,17.77
2019-01-28T13:56:03.923Z,15.87
2019-01-28T13:58:34.275Z,20.80
2019-01-28T14:01:05.467Z,19.20
2019-01-28T14:03:35.807Z,19.50
2019-01-28T14:06:06.267Z,16.00
2019-01-28T14:08:36.771Z,13.10
2019-01-28T14:11:07.603Z,11.67
2019-01-28T14:13:37.947Z,22.53
2019-01-28T14:16:10.374Z,31.30
2019-01-28T14:18:42.120Z,49.13
2019-01-28T14:21:12.604Z,39.87
2019-01-28T14:23:42.935Z,44.13
2019-01-28T14:26:13.695Z,29.73
2019-01-28T14:28:44.036Z,26.73
2019-01-28T14:31:14.535Z,28.80
2019-01-28T14:33:44.952Z,29.17
2019-01-28T14:36:15.311Z,34.60
2019-01-28T14:38:45.699Z,25.90
2019-01-28T14:41:16.066Z,20.33
2019-01-28T14:43:46.507Z,22.60
2019-01-28T14:46:16.263Z,32.93
2019-01-28T14:48:49.198Z,37.20
2019-01-28T14:51:18.725Z,42.03
2019-01-28T14:53:49.139Z,27.87
2019-01-28T14:56:22.855Z,19.33
2019-01-28T14:58:53.203Z,19.67
2019-01-28T15:01:23.641Z,16.00
2019-01-28T15:03:55.143Z,23.13
2019-01-28T15:06:25.491Z,21.40
2019-01-28T15:08:55.863Z,32.87
2019-01-28T15:11:26.245Z,50.57
2019-01-28T15:13:56.579Z,42.83
2019-01-28T15:16:26.963Z,40.73
2019-01-28T15:18:57.295Z,36.50
2019-01-28T15:21:27.672Z,41.47
2019-01-28T15:23:58.012Z,38.87
2019-01-28T15:26:28.435Z,32.23
2019-01-28T15:28:58.956Z,100.53
2019-01-28T15:31:29.340Z,63.60
2019-01-28T15:34:17.423Z,20.97
2019-01-28T15:36:47.870Z,19.37
2019-01-28T15:39:17.560Z,21.70
2019-01-28T15:41:47.899Z,22.40
2019-01-28T15:44:18.324Z,22.17
2019-01-28T15:46:48.679Z,22.50
2019-01-28T15:49:18.483Z,18.83
2019-01-28T15:51:48.757Z,21.83
2019-01-28T15:54:19.172Z,41.87
2019-01-28T15:56:49.525Z,65.23
2019-01-28T15:59:19.283Z,39.67
2019-01-28T16:01:49.707Z,34.37
2019-01-28T16:04:20.099Z,59.63
2019-01-28T16:06:50.599Z,87.13
2019-01-28T16:09:28.693Z,90.07
2019-01-28T16:11:53.379Z,78.80
2019-01-28T16:14:23.796Z,60.97
2019-01-28T16:16:54.616Z,49.27
2019-01-28T16:19:26.816Z,152.47
2019-01-28T16:21:57.177Z,44.43
2019-01-28T16:24:28.699Z,36.67
2019-01-28T16:26:59.135Z,32.57
2019-01-28T16:29:28.868Z,36.37
2019-01-28T16:31:59.245Z,39.17
2019-01-28T16:34:29.579Z,41.30
2019-01-28T16:36:59.934Z,39.33
2019-01-28T16:39:30.360Z,47.47
2019-01-28T16:42:00.781Z,48.73
2019-01-28T16:44:31.191Z,34.07
2019-01-28T16:49:37.883Z,33.13
2019-01-28T16:52:10.444Z,34.40
2019-01-28T16:54:42.602Z,35.47
2019-01-28T16:57:13.036Z,34.87
2019-01-28T16:59:43.413Z,31.47
2019-01-28T17:02:13.747Z,42.40
2019-01-28T17:04:46.449Z,64.27
2019-01-28T17:07:16.789Z,33.87
2019-01-28T17:09:47.520Z,32.00
2019-01-28T17:12:18.264Z,37.73
2019-01-28T17:14:47.952Z,35.23
2019-01-28T17:17:18.200Z,46.43
2019-01-28T17:19:51.117Z,34.87
2019-01-28T17:22:21.195Z,36.67
2019-01-28T17:24:51.452Z,35.30
2019-01-28T17:27:21.480Z,29.10
2019-01-28T17:29:52.687Z,29.00
2019-01-28T17:32:24.965Z,30.77
2019-01-28T17:34:54.711Z,32.07
2019-01-28T17:37:26.176Z,39.60
2019-01-28T17:39:57.871Z,46.53
2019-01-28T17:42:28.440Z,36.83
2019-01-28T17:44:58.892Z,35.17
2019-01-28T17:47:34.788Z,34.73
2019-01-28T17:50:06.107Z,41.97
2019-01-28T17:52:37.615Z,37.30
2019-01-28T17:55:08.483Z,45.77
2019-01-28T17:57:38.831Z,54.70
2019-01-28T18:00:13.541Z,42.00
2019-01-28T18:02:44.328Z,47.47
2019-01-28T18:05:14.876Z,44.23
2019-01-28T18:07:45.207Z,43.90
2019-01-28T18:10:16.327Z,46.30
2019-01-28T18:12:57.327Z,47.63
2019-01-28T18:15:27.729Z,49.57
2019-01-28T18:17:58.150Z,50.37
2019-01-28T18:20:28.516Z,55.07
2019-01-28T18:22:58.935Z,52.83
2019-01-28T18:25:30.207Z,68.80
2019-01-28T18:28:00.620Z,61.97
2019-01-28T18:30:44.476Z,51.50
2019-01-28T18:33:15.208Z,46.50
2019-01-28T18:35:45.856Z,46.17
2019-01-28T18:38:16.206Z,41.80
2019-01-28T18:40:46.969Z,39.70
2019-01-28T18:43:17.375Z,39.20
2019-01-28T18:45:47.787Z,35.23
2019-01-28T18:48:18.159Z,32.47
2019-01-28T18:50:48.686Z,33.80
2019-01-28T18:53:19.107Z,32.80
2019-01-28T18:55:49.447Z,31.00
2019-01-28T18:58:19.787Z,30.73
2019-01-28T19:00:50.333Z,32.17
2019-01-28T19:03:20.767Z,30.77
2019-01-28T19:05:56.147Z,28.87
2019-01-28T19:08:47.631Z,33.47
2019-01-28T19:11:42.709Z,42.33
2019-01-28T19:14:34.920Z,52.60
2019-01-28T19:17:23.572Z,58.87
2019-01-28T19:20:15.897Z,60.03
2019-01-28T19:22:46.239Z,66.13
2019-01-28T19:25:16.724Z,71.90
2019-01-28T19:27:47.167Z,76.40
2019-01-28T19:30:19.623Z,53.27
2019-01-28T19:32:49.963Z,48.43
2019-01-28T19:35:21.483Z,31.60
2019-01-28T19:37:51.924Z,30.83
2019-01-28T19:40:22.267Z,31.83
2019-01-28T19:42:52.662Z,31.63
2019-01-28T19:45:23.343Z,31.27
2019-01-28T19:47:53.723Z,29.63
2019-01-28T19:50:25.380Z,28.93
2019-01-28T19:52:55.751Z,30.03
2019-01-28T19:55:26.165Z,30.20
2019-01-28T19:57:56.512Z,29.73
2019-01-28T20:00:28.708Z,32.20
2019-01-28T20:02:59.419Z,31.33
2019-01-28T20:05:29.707Z,32.37
2019-01-28T20:08:00.053Z,33.50
2019-01-28T20:10:30.403Z,31.50
2019-01-28T20:13:00.439Z,31.13
2019-01-28T20:15:31.002Z,31.77
2019-01-28T20:18:01.293Z,31.87
2019-01-28T20:20:31.563Z,32.67
2019-01-28T20:23:01.992Z,32.20
2019-01-28T20:25:32.397Z,34.03
2019-01-28T20:28:02.798Z,33.80
2019-01-28T20:30:33.211Z,34.63
2019-01-28T20:33:03.559Z,33.43
2019-01-28T20:35:34.282Z,34.00
2019-01-28T20:38:05.015Z,42.07
2019-01-28T20:40:35.422Z,49.60
2019-01-28T20:43:05.940Z,49.80
2019-01-28T20:45:36.299Z,45.63
2019-01-28T20:48:06.831Z,35.97
2019-01-28T20:50:37.285Z,36.27
2019-01-28T20:53:07.736Z,34.60
2019-01-28T20:55:37.486Z,35.47
2019-01-28T20:58:07.874Z,37.10
2019-01-28T21:00:38.271Z,38.07
2019-01-28T21:03:08.764Z,35.27
2019-01-28T21:05:39.165Z,32.97
2019-01-28T21:08:10.295Z,31.43
2019-01-28T21:10:40.703Z,33.37
2019-01-28T21:13:11.050Z,33.17
2019-01-28T21:15:41.557Z,32.40
2019-01-28T21:18:12.107Z,32.80
2019-01-28T21:20:42.480Z,33.53
2019-01-28T21:23:12.842Z,35.77
2019-01-28T21:25:42.539Z,35.03
2019-01-28T21:28:12.849Z,38.30
2019-01-28T21:30:43.215Z,36.60
2019-01-28T21:33:13.591Z,40.57
2019-01-28T21:36:08.957Z,45.03
2019-01-28T21:38:44.015Z,35.37
2019-01-28T21:41:14.355Z,34.83
2019-01-28T21:43:44.795Z,35.07
2019-01-28T21:46:15.127Z,32.30
2019-01-28T21:48:45.530Z,33.27
2019-01-28T21:51:15.871Z,33.53
2019-01-28T21:53:46.203Z,34.57
2019-01-28T21:56:15.919Z,33.53
2019-01-28T21:58:46.511Z,34.80
2019-01-28T22:01:16.211Z,36.03
2019-01-28T22:03:46.861Z,46.20
2019-01-28T22:06:16.631Z,42.73
2019-01-28T22:08:46.875Z,38.07
2019-01-28T22:11:16.571Z,31.83
2019-01-28T22:13:46.811Z,30.93
2019-01-28T22:16:16.543Z,32.13
2019-01-28T22:18:46.803Z,30.63
2019-01-28T22:21:18.219Z,32.00
2019-01-28T22:23:48.567Z,33.53
2019-01-28T22:26:18.913Z,32.43
2019-01-28T22:28:49.283Z,31.97
2019-01-28T22:31:19.733Z,34.53
2019-01-28T22:33:50.111Z,33.73
2019-01-28T22:36:20.455Z,36.77
2019-01-28T22:38:50.831Z,37.53
2019-01-28T22:41:21.255Z,35.63
2019-01-28T22:43:51.627Z,33.90
2019-01-28T22:46:21.980Z,35.23
2019-01-28T22:48:52.443Z,35.23
2019-01-28T22:51:22.820Z,36.63
2019-01-28T22:53:53.199Z,36.00
2019-01-28T22:56:23.547Z,36.67
2019-01-28T22:58:53.892Z,35.23
2019-01-28T23:01:26.685Z,36.67
2019-01-28T23:03:57.173Z,37.10
2019-01-28T23:06:27.591Z,35.13
2019-01-28T23:08:57.947Z,34.60
2019-01-28T23:11:28.851Z,35.17
2019-01-28T23:13:59.195Z,34.20
2019-01-28T23:16:29.566Z,35.63
2019-01-28T23:18:59.991Z,32.50
2019-01-28T23:21:29.683Z,33.80
2019-01-28T23:23:59.935Z,35.30
2019-01-28T23:26:30.332Z,32.80
2019-01-28T23:29:00.680Z,32.17
2019-01-28T23:31:30.464Z,33.63
2019-01-28T23:34:00.723Z,34.63
2019-01-28T23:36:30.485Z,33.37
2019-01-28T23:39:00.735Z,32.67
2019-01-28T23:41:30.827Z,31.63
2019-01-28T23:44:01.083Z,34.37
2019-01-28T23:46:30.803Z,34.30
2019-01-28T23:49:01.065Z,34.33
2019-01-28T23:51:30.788Z,33.57
2019-01-28T23:54:01.051Z,34.33
2019-01-28T23:56:30.803Z,34.87
2019-01-28T23:59:01.050Z,36.20
